createdAt,value
2023-01-07T00:00:55.156Z,100749.88
2023-01-07T00:03:44.491Z,100746.53
2023-01-07T00:06:34.325Z,100742.28
2023-01-07T00:09:24.358Z,100739.47
2023-01-07T00:12:13.029Z,100739.06
2023-01-07T00:15:01.594Z,100736.94
2023-01-07T00:17:50.195Z,100736.50
2023-01-07T00:20:38.800Z,100740.63
2023-01-07T00:23:27.854Z,100735.97
2023-01-07T00:26:19.259Z,100740.63
2023-01-07T00:29:08.490Z,100736.94
2023-01-07T00:31:57.127Z,100734.03
2023-01-07T00:34:45.712Z,100732.53
2023-01-07T00:37:52.621Z,100735.16
2023-01-07T00:40:41.284Z,100736.38
2023-01-07T00:43:31.283Z,100735.94
2023-01-07T00:46:20.759Z,100732.84
2023-01-07T00:49:09.387Z,100724.19
2023-01-07T00:51:58.161Z,100733.88
2023-01-07T00:54:46.993Z,100734.66
2023-01-07T00:57:35.624Z,100719.00
2023-01-07T01:00:27.042Z,100723.56
2023-01-07T01:03:16.262Z,100726.78
2023-01-07T01:06:05.747Z,100725.56
2023-01-07T01:08:54.404Z,100729.84
2023-01-07T01:11:42.990Z,100730.69
2023-01-07T01:14:31.650Z,100724.88
2023-01-07T01:17:22.206Z,100734.56
2023-01-07T01:20:13.849Z,100728.00
2023-01-07T01:23:02.463Z,100736.59
2023-01-07T01:25:51.138Z,100731.25
2023-01-07T01:28:39.915Z,100735.75
2023-01-07T01:31:28.670Z,100725.88
2023-01-07T01:34:18.807Z,100732.03
2023-01-07T01:37:07.462Z,100723.81
2023-01-07T01:39:56.065Z,100730.63
2023-01-07T01:42:44.711Z,100728.16
2023-01-07T01:45:33.846Z,100728.97
2023-01-07T01:48:23.317Z,100725.88
2023-01-07T01:51:15.160Z,100729.16
2023-01-07T01:54:05.658Z,100719.88
2023-01-07T01:56:55.481Z,100722.72
2023-01-07T01:59:45.954Z,100712.69
2023-01-07T02:02:41.473Z,100717.63
2023-01-07T02:05:33.377Z,100714.69
2023-01-07T02:08:23.371Z,100708.31
2023-01-07T02:11:20.796Z,100707.69
2023-01-07T02:14:18.783Z,100708.31
2023-01-07T02:17:14.318Z,100705.22
2023-01-07T02:20:13.438Z,100708.72
2023-01-07T02:23:30.560Z,100698.22
2023-01-07T02:26:46.939Z,100701.91
2023-01-07T02:30:00.999Z,100693.28
2023-01-07T02:33:00.274Z,100694.13
2023-01-07T02:36:01.181Z,100696.81
2023-01-07T02:39:01.115Z,100683.03
2023-01-07T02:41:58.494Z,100688.78
2023-01-07T02:44:51.872Z,100684.28
2023-01-07T02:47:42.894Z,100680.66
2023-01-07T02:50:32.987Z,100669.16
2023-01-07T02:53:22.154Z,100681.50
2023-01-07T02:56:22.799Z,100684.94
2023-01-07T02:59:25.201Z,100681.50
2023-01-07T03:02:25.440Z,100684.53
2023-01-07T03:05:24.167Z,100679.34
2023-01-07T03:08:27.566Z,100684.13
2023-01-07T03:11:16.417Z,100687.13
2023-01-07T03:14:08.466Z,100684.28
2023-01-07T03:17:00.314Z,100688.44
2023-01-07T03:19:51.634Z,100689.63
2023-01-07T03:22:44.631Z,100684.22
2023-01-07T03:25:36.377Z,100692.44
2023-01-07T03:28:27.836Z,100687.47
2023-01-07T03:31:17.252Z,100687.47
2023-01-07T03:34:09.217Z,100681.75
2023-01-07T03:37:00.624Z,100690.16
2023-01-07T03:39:49.401Z,100692.06
2023-01-07T03:42:40.294Z,100689.13
2023-01-07T03:45:30.019Z,100690.16
2023-01-07T03:48:18.695Z,100694.09
2023-01-07T03:51:07.323Z,100686.47
2023-01-07T03:53:56.930Z,100681.34
2023-01-07T03:56:45.515Z,100682.13
2023-01-07T03:59:35.510Z,100680.88
2023-01-07T04:02:24.099Z,100674.13
2023-01-07T04:05:13.167Z,100671.00
2023-01-07T04:08:01.755Z,100665.03
2023-01-07T04:10:50.354Z,100666.06
2023-01-07T04:13:38.953Z,100668.56
2023-01-07T04:16:29.012Z,100661.56
2023-01-07T04:19:17.932Z,100664.84
2023-01-07T04:22:08.458Z,100655.41
2023-01-07T04:24:57.963Z,100656.00
2023-01-07T04:27:46.625Z,100655.81
2023-01-07T04:30:35.500Z,100654.16
2023-01-07T04:33:25.516Z,100650.88
2023-01-07T04:36:14.338Z,100646.53
2023-01-07T04:39:03.272Z,100648.56
2023-01-07T04:41:51.865Z,100649.22
2023-01-07T04:44:40.526Z,100653.72
2023-01-07T04:47:29.149Z,100652.88
2023-01-07T04:50:19.343Z,100647.97
2023-01-07T04:53:08.054Z,100650.88
2023-01-07T04:55:56.770Z,100652.88
2023-01-07T04:58:45.362Z,100658.66
2023-01-07T05:01:34.094Z,100648.19
2023-01-07T05:04:22.899Z,100648.81
2023-01-07T05:07:12.897Z,100642.44
2023-01-07T05:10:01.554Z,100639.34
2023-01-07T05:12:50.198Z,100640.38
2023-01-07T05:15:38.778Z,100643.03
2023-01-07T05:18:27.436Z,100638.53
2023-01-07T05:21:16.016Z,100639.28
2023-01-07T05:24:06.193Z,100625.94
2023-01-07T05:26:54.858Z,100629.00
2023-01-07T05:29:43.611Z,100625.72
2023-01-07T05:32:32.203Z,100627.75
2023-01-07T05:35:21.008Z,100625.31
2023-01-07T05:38:09.662Z,100629.00
2023-01-07T05:40:59.632Z,100636.00
2023-01-07T05:43:48.322Z,100630.25
2023-01-07T05:46:37.004Z,100626.78
2023-01-07T05:49:25.735Z,100617.53
2023-01-07T05:52:14.342Z,100631.91
2023-01-07T05:55:02.911Z,100636.84
2023-01-07T05:57:53.003Z,100627.59
2023-01-07T06:00:41.633Z,100628.84
2023-01-07T06:03:30.304Z,100637.50
2023-01-07T06:06:18.996Z,100626.16
2023-01-07T06:09:07.637Z,100627.84
2023-01-07T06:11:56.241Z,100627.84
2023-01-07T06:14:46.293Z,100642.59
2023-01-07T06:17:35.363Z,100638.28
2023-01-07T06:20:24.458Z,100636.63
2023-01-07T06:23:13.136Z,100631.28
2023-01-07T06:26:02.023Z,100634.78
2023-01-07T06:28:50.616Z,100633.31
2023-01-07T06:31:40.673Z,100635.59
2023-01-07T06:34:29.308Z,100633.50
2023-01-07T06:37:18.144Z,100626.72
2023-01-07T06:40:07.949Z,100630.66
2023-01-07T06:42:56.621Z,100636.44
2023-01-07T06:45:45.182Z,100631.91
2023-01-07T06:48:35.214Z,100629.63
2023-01-07T06:51:23.854Z,100632.31
2023-01-07T06:54:12.481Z,100625.72
2023-01-07T06:57:02.308Z,100639.28
2023-01-07T06:59:51.178Z,100637.66
2023-01-07T07:02:39.876Z,100643.38
2023-01-07T07:05:30.092Z,100637.66
2023-01-07T07:08:18.808Z,100642.59
2023-01-07T07:11:07.486Z,100634.34
2023-01-07T07:13:56.168Z,100634.97
2023-01-07T07:16:44.761Z,100633.94
2023-01-07T07:19:33.671Z,100638.44
2023-01-07T07:22:23.732Z,100637.41
2023-01-07T07:25:12.322Z,100641.75
2023-01-07T07:28:00.910Z,100640.09
2023-01-07T07:30:49.817Z,100639.66
2023-01-07T07:33:38.500Z,100636.41
2023-01-07T07:36:27.184Z,100646.69
2023-01-07T07:39:17.250Z,100638.41
2023-01-07T07:42:06.477Z,100639.44
2023-01-07T07:44:55.089Z,100638.41
2023-01-07T07:47:43.888Z,100635.75
2023-01-07T07:50:32.479Z,100629.81
2023-01-07T07:53:21.477Z,100634.94
2023-01-07T07:56:11.783Z,100632.25
2023-01-07T07:59:00.443Z,100635.38
2023-01-07T08:01:50.328Z,100631.06
2023-01-07T08:04:39.113Z,100629.41
2023-01-07T08:07:33.585Z,100624.06
2023-01-07T08:10:23.027Z,100628.56
2023-01-07T08:13:13.036Z,100623.22
2023-01-07T08:16:02.641Z,100623.44
2023-01-07T08:18:51.216Z,100633.50
2023-01-07T08:21:39.881Z,100628.59
2023-01-07T08:24:28.545Z,100630.22
2023-01-07T08:27:17.200Z,100630.66
2023-01-07T08:30:08.224Z,100622.81
2023-01-07T08:32:57.048Z,100633.94
2023-01-07T08:35:46.308Z,100630.66
2023-01-07T08:38:35.053Z,100627.34
2023-01-07T08:41:25.224Z,100621.63
2023-01-07T08:44:13.875Z,100630.66
2023-01-07T08:47:04.131Z,100625.31
2023-01-07T08:49:52.764Z,100633.31
2023-01-07T08:52:41.322Z,100627.34
2023-01-07T08:55:29.993Z,100627.75
2023-01-07T08:58:18.591Z,100620.59
2023-01-07T09:01:08.408Z,100615.88
2023-01-07T09:03:58.445Z,100611.94
2023-01-07T09:06:47.018Z,100612.97
2023-01-07T09:09:35.724Z,100610.31
2023-01-07T09:12:24.385Z,100611.69
2023-01-07T09:15:13.441Z,100621.00
2023-01-07T09:18:03.576Z,100618.31
2023-01-07T09:20:53.671Z,100607.00
2023-01-07T09:23:42.267Z,100603.09
2023-01-07T09:26:30.885Z,100599.41
2023-01-07T09:29:19.503Z,100605.59
2023-01-07T09:32:08.213Z,100599.00
2023-01-07T09:34:57.213Z,100599.41
2023-01-07T09:37:47.259Z,100601.13
2023-01-07T09:40:38.797Z,100599.84
2023-01-07T09:44:00.127Z,100592.44
2023-01-07T09:46:38.830Z,100589.78
2023-01-07T09:49:30.298Z,100590.44
2023-01-07T09:52:23.798Z,100579.81
2023-01-07T09:55:20.419Z,100583.25
2023-01-07T09:58:10.957Z,100584.91
2023-01-07T10:01:04.171Z,100584.25
2023-01-07T10:03:59.431Z,100578.47
2023-01-07T10:06:53.705Z,100579.28
2023-01-07T10:09:52.333Z,100574.22
2023-01-07T10:12:48.883Z,100562.28
2023-01-07T10:15:52.203Z,100562.41
2023-01-07T10:18:47.854Z,100560.22
2023-01-07T10:21:42.594Z,100553.81
2023-01-07T10:24:34.515Z,100557.56
2023-01-07T10:27:30.975Z,100547.41
2023-01-07T10:30:24.182Z,100556.53
2023-01-07T10:33:25.077Z,100546.72
2023-01-07T10:36:22.300Z,100540.97
2023-01-07T10:39:19.864Z,100537.28
2023-01-07T10:42:14.161Z,100541.44
2023-01-07T10:45:27.363Z,100535.72
2023-01-07T10:48:30.383Z,100532.84
2023-01-07T10:51:44.139Z,100523.97
2023-01-07T10:54:43.637Z,100510.59
2023-01-07T10:57:33.591Z,100508.53
2023-01-07T11:00:22.397Z,100503.59
2023-01-07T11:03:19.557Z,100494.94
2023-01-07T11:06:11.870Z,100493.28
2023-01-07T11:09:00.533Z,100488.69
2023-01-07T11:11:50.057Z,100475.34
2023-01-07T11:14:41.153Z,100467.72
2023-01-07T11:17:33.748Z,100462.78
2023-01-07T11:20:45.843Z,100468.88
2023-01-07T11:23:36.736Z,100462.34
2023-01-07T11:26:30.481Z,100455.34
2023-01-07T11:29:25.645Z,100443.63
2023-01-07T11:32:22.874Z,100445.03
2023-01-07T11:35:23.017Z,100432.28
2023-01-07T11:38:29.293Z,100425.69
2023-01-07T11:41:25.299Z,100428.53
2023-01-07T11:44:17.568Z,100421.38
2023-01-07T11:47:06.469Z,100415.38
2023-01-07T11:49:55.128Z,100418.63
2023-01-07T11:52:56.984Z,100416.56
2023-01-07T11:56:00.613Z,100422.72
2023-01-07T11:58:51.052Z,100422.13
2023-01-07T12:01:43.689Z,100413.09
2023-01-07T12:04:36.560Z,100421.91
2023-01-07T12:07:26.522Z,100415.34
2023-01-07T12:10:27.660Z,100408.75
2023-01-07T12:13:23.482Z,100404.41
2023-01-07T12:16:12.264Z,100410.00
2023-01-07T12:19:14.366Z,100399.31
2023-01-07T12:22:14.852Z,100393.53
2023-01-07T12:25:21.755Z,100398.06
2023-01-07T12:28:13.186Z,100383.03
2023-01-07T12:31:14.682Z,100381.22
2023-01-07T12:34:08.984Z,100379.78
2023-01-07T12:37:00.705Z,100380.34
2023-01-07T12:39:52.396Z,100373.81
2023-01-07T12:42:44.433Z,100370.13
2023-01-07T12:45:37.391Z,100363.97
2023-01-07T12:48:31.271Z,100370.97
2023-01-07T12:51:22.669Z,100355.78
2023-01-07T12:54:16.006Z,100357.03
2023-01-07T12:57:06.950Z,100349.22
2023-01-07T13:00:02.187Z,100346.34
2023-01-07T13:02:55.202Z,100343.88
2023-01-07T13:05:49.063Z,100338.09
2023-01-07T13:08:43.432Z,100334.63
2023-01-07T13:11:53.910Z,100337.72
2023-01-07T13:14:45.935Z,100336.25
2023-01-07T13:17:34.607Z,100335.22
2023-01-07T13:20:36.331Z,100340.38
2023-01-07T13:23:31.886Z,100325.16
2023-01-07T13:26:31.234Z,100329.50
2023-01-07T13:29:26.243Z,100328.22
2023-01-07T13:32:38.824Z,100333.78
2023-01-07T13:35:40.109Z,100323.31
2023-01-07T13:38:53.659Z,100318.81
2023-01-07T13:41:52.116Z,100317.13
2023-01-07T13:44:56.587Z,100316.94
2023-01-07T13:47:48.178Z,100317.78
2023-01-07T13:50:39.066Z,100316.75
2023-01-07T13:53:46.864Z,100320.63
2023-01-07T13:56:40.695Z,100317.97
2023-01-07T13:59:31.819Z,100316.13
2023-01-07T14:02:22.746Z,100322.91
2023-01-07T14:05:24.884Z,100310.56
2023-01-07T14:08:13.553Z,100308.09
2023-01-07T14:11:03.593Z,100301.09
2023-01-07T14:13:56.650Z,100302.53
2023-01-07T14:16:47.851Z,100297.41
2023-01-07T14:19:42.400Z,100299.88
2023-01-07T14:22:40.015Z,100290.63
2023-01-07T14:25:41.969Z,100290.63
2023-01-07T14:29:07.686Z,100284.25
2023-01-07T14:32:14.826Z,100287.13
2023-01-07T14:35:07.799Z,100284.44
2023-01-07T14:37:56.702Z,100278.50
2023-01-07T14:41:04.669Z,100281.34
2023-01-07T14:44:25.662Z,100271.50
2023-01-07T14:47:16.211Z,100273.16
2023-01-07T14:50:18.945Z,100272.69
2023-01-07T14:53:45.614Z,100267.81
2023-01-07T14:56:45.873Z,100275.59
2023-01-07T15:00:03.740Z,100262.84
2023-01-07T15:03:27.072Z,100270.28
2023-01-07T15:06:26.230Z,100262.03
2023-01-07T15:09:34.233Z,100258.53
2023-01-07T15:12:44.699Z,100259.13
2023-01-07T15:15:55.028Z,100248.84
2023-01-07T15:18:51.544Z,100250.03
2023-01-07T15:21:50.521Z,100250.91
2023-01-07T15:24:44.039Z,100248.63
2023-01-07T15:27:37.534Z,100255.81
2023-01-07T15:30:32.554Z,100249.03
2023-01-07T15:33:35.995Z,100254.16
2023-01-07T15:36:27.129Z,100248.81
2023-01-07T15:39:20.285Z,100253.75
2023-01-07T15:42:16.125Z,100250.88
2023-01-07T15:45:05.162Z,100246.34
2023-01-07T15:47:54.083Z,100252.94
2023-01-07T15:50:46.402Z,100245.53
2023-01-07T15:53:36.532Z,100243.72
2023-01-07T15:56:25.469Z,100242.31
2023-01-07T15:59:15.875Z,100246.44
2023-01-07T16:02:15.416Z,100249.72
2023-01-07T16:05:05.630Z,100241.06
2023-01-07T16:07:56.030Z,100237.78
2023-01-07T16:10:59.111Z,100228.31
2023-01-07T16:13:56.822Z,100233.66
2023-01-07T16:16:48.220Z,100223.81
2023-01-07T16:19:37.131Z,100220.69
2023-01-07T16:22:27.773Z,100223.31
2023-01-07T16:25:23.446Z,100213.66
2023-01-07T16:28:20.702Z,100215.13
2023-01-07T16:31:12.924Z,100204.84
2023-01-07T16:34:02.223Z,100203.13
2023-01-07T16:36:52.503Z,100201.06
2023-01-07T16:39:42.806Z,100196.66
2023-01-07T16:42:31.502Z,100192.09
2023-01-07T16:45:26.940Z,100180.09
2023-01-07T16:48:20.348Z,100195.97
2023-01-07T16:51:36.370Z,100189.06
2023-01-07T16:54:31.688Z,100188.00
2023-01-07T16:57:31.604Z,100192.13
2023-01-07T17:00:21.092Z,100184.72
2023-01-07T17:03:13.436Z,100186.00
2023-01-07T17:06:05.318Z,100178.16
2023-01-07T17:08:56.475Z,100162.94
2023-01-07T17:11:45.106Z,100168.88
2023-01-07T17:14:48.245Z,100164.56
2023-01-07T17:17:36.850Z,100158.84
2023-01-07T17:20:26.877Z,100156.38
2023-01-07T17:23:33.352Z,100154.50
2023-01-07T17:26:24.232Z,100158.41
2023-01-07T17:29:13.946Z,100154.69
2023-01-07T17:32:02.728Z,100157.13
2023-01-07T17:34:51.461Z,100154.72
2023-01-07T17:37:41.408Z,100155.16
2023-01-07T17:40:30.142Z,100151.44
2023-01-07T17:43:34.093Z,100151.00
2023-01-07T17:46:24.126Z,100148.56
2023-01-07T17:49:13.188Z,100142.56
2023-01-07T17:52:01.768Z,100143.53
2023-01-07T17:54:51.793Z,100138.97
2023-01-07T17:57:40.572Z,100139.16
2023-01-07T18:00:31.647Z,100138.53
2023-01-07T18:03:20.292Z,100138.53
2023-01-07T18:06:17.697Z,100140.97
2023-01-07T18:09:08.533Z,100143.47
2023-01-07T18:12:18.507Z,100141.41
2023-01-07T18:15:17.673Z,100134.78
2023-01-07T18:18:06.416Z,100131.09
2023-01-07T18:20:55.116Z,100129.63
2023-01-07T18:23:45.936Z,100121.94
2023-01-07T18:26:34.602Z,100119.91
2023-01-07T18:29:24.593Z,100116.88
2023-01-07T18:32:13.229Z,100114.38
2023-01-07T18:35:01.861Z,100118.44
2023-01-07T18:37:51.111Z,100118.00
2023-01-07T18:40:39.633Z,100117.97
2023-01-07T18:43:28.347Z,100111.38
2023-01-07T18:46:18.479Z,100115.94
2023-01-07T18:49:07.259Z,100114.50
2023-01-07T18:51:55.914Z,100113.00
2023-01-07T18:54:46.102Z,100113.91
2023-01-07T18:57:34.901Z,100115.16
2023-01-07T19:00:23.861Z,100107.38
2023-01-07T19:03:14.250Z,100112.31
2023-01-07T19:06:07.416Z,100110.19
2023-01-07T19:08:56.523Z,100110.88
2023-01-07T19:11:45.445Z,100109.75
2023-01-07T19:14:34.400Z,100100.69
2023-01-07T19:17:23.085Z,100105.22
2023-01-07T19:20:15.305Z,100103.09
2023-01-07T19:23:03.911Z,100102.19
2023-01-07T19:25:59.648Z,100105.31
2023-01-07T19:28:48.897Z,100107.25
2023-01-07T19:31:39.678Z,100107.19
2023-01-07T19:34:32.082Z,100113.47
2023-01-07T19:37:22.707Z,100114.72
2023-01-07T19:40:13.694Z,100107.78
2023-01-07T19:43:02.783Z,100098.66
2023-01-07T19:45:58.216Z,100101.91
2023-01-07T19:48:48.671Z,100103.72
2023-01-07T19:51:39.365Z,100098.00
2023-01-07T19:54:29.426Z,100099.78
2023-01-07T19:57:19.006Z,100084.59
2023-01-07T20:00:11.032Z,100082.50
2023-01-07T20:02:59.905Z,100080.47
2023-01-07T20:05:48.637Z,100085.72
2023-01-07T20:08:37.553Z,100074.84
2023-01-07T20:11:27.702Z,100069.16
2023-01-07T20:14:16.586Z,100069.41
2023-01-07T20:17:05.353Z,100061.38
2023-01-07T20:19:53.994Z,100057.66
2023-01-07T20:22:42.726Z,100052.75
2023-01-07T20:25:31.430Z,100051.09
2023-01-07T20:28:21.784Z,100052.56
2023-01-07T20:31:13.029Z,100048.03
2023-01-07T20:34:01.722Z,100045.75
2023-01-07T20:36:50.314Z,100043.34
2023-01-07T20:39:38.977Z,100041.53
2023-01-07T20:42:27.958Z,100035.75
2023-01-07T20:45:18.266Z,100034.94
2023-01-07T20:48:07.082Z,100036.00
2023-01-07T20:50:56.182Z,100043.41
2023-01-07T20:53:46.751Z,100036.19
2023-01-07T20:56:36.244Z,100039.97
2023-01-07T20:59:24.887Z,100033.19
2023-01-07T21:02:18.130Z,100030.19
2023-01-07T21:05:07.717Z,100028.47
2023-01-07T21:08:02.256Z,100028.06
2023-01-07T21:10:51.173Z,100023.13
2023-01-07T21:13:39.990Z,100018.09
2023-01-07T21:16:29.065Z,100015.22
2023-01-07T21:19:21.527Z,100007.91
2023-01-07T21:22:10.166Z,100008.03
2023-01-07T21:24:58.849Z,100001.13
2023-01-07T21:27:48.574Z,99994.81
2023-01-07T21:30:37.261Z,99987.25
2023-01-07T21:33:26.379Z,99985.56
2023-01-07T21:36:18.517Z,99985.69
2023-01-07T21:39:08.446Z,99978.72
2023-01-07T21:41:57.253Z,99982.75
2023-01-07T21:44:45.893Z,99984.47
2023-01-07T21:47:34.499Z,99986.28
2023-01-07T21:50:23.231Z,99988.66
2023-01-07T21:53:18.507Z,99982.84
2023-01-07T21:56:07.747Z,99979.59
2023-01-07T21:58:56.984Z,99973.16
2023-01-07T22:01:46.041Z,99972.56
2023-01-07T22:04:34.916Z,99967.66
2023-01-07T22:07:23.555Z,99964.69
2023-01-07T22:10:13.905Z,99958.59
2023-01-07T22:13:02.618Z,99958.59
2023-01-07T22:15:51.596Z,99968.06
2023-01-07T22:18:41.018Z,99973.13
2023-01-07T22:21:29.672Z,99965.59
2023-01-07T22:24:18.716Z,99968.50
2023-01-07T22:27:08.759Z,99964.03
2023-01-07T22:29:57.702Z,99964.03
2023-01-07T22:32:46.419Z,99957.78
2023-01-07T22:35:35.928Z,99959.09
2023-01-07T22:38:26.989Z,99950.78
2023-01-07T22:41:15.684Z,99946.69
2023-01-07T22:44:08.057Z,99955.78
2023-01-07T22:46:56.842Z,99949.81
2023-01-07T22:49:45.710Z,99947.53
2023-01-07T22:52:34.633Z,99934.34
2023-01-07T22:55:23.348Z,99935.19
2023-01-07T22:58:12.085Z,99926.56
2023-01-07T23:01:14.252Z,99927.81
2023-01-07T23:04:02.931Z,99918.34
2023-01-07T23:06:51.568Z,99922.06
2023-01-07T23:09:40.231Z,99921.63
2023-01-07T23:12:28.908Z,99927.44
2023-01-07T23:15:17.930Z,99929.50
2023-01-07T23:18:09.582Z,99922.06
2023-01-07T23:20:58.672Z,99922.53
2023-01-07T23:23:47.355Z,99919.69
2023-01-07T23:26:35.941Z,99916.72
2023-01-07T23:29:25.247Z,99910.63
2023-01-07T23:32:13.804Z,99908.09
2023-01-07T23:35:04.115Z,99902.81
2023-01-07T23:37:58.161Z,99906.47
2023-01-07T23:40:46.813Z,99910.78
2023-01-07T23:43:36.203Z,99885.44
2023-01-07T23:46:24.864Z,99893.66
2023-01-07T23:49:13.634Z,99895.16
2023-01-07T23:52:03.724Z,99893.72
2023-01-07T23:54:52.375Z,99870.09
2023-01-07T23:57:40.935Z,99871.06
